AFR79NB LOWW-LFPG
Flight info
| Callsign | AFR79NB |
|---|---|
| Flight time | N/A |
| Altitude | 34000 |
| Route | MEDIX1C/29 MEDIX DCT RENKA/N0447F360 L610 STAUB/N0403F240 L610 MAMOR DCT ASPAT DCT VIBOM DCT BETEX DCT IDOSA UN857 TOLVU/N0445F370 DCT RAPOR DCT VEDUS VEDUS9W |
| Aircraft | A319/M-SDE3/2105 |
Departure
| Time | 2026-04-25 20:52 |
|---|---|
| Airport | Vienna International Airport (LOWW) |
Arrival
| Time | N/A |
|---|---|
| Airport | Charles de Gaulle International Airport (LFPG) |
| Time | Latitude | Longitude | Altitude | Speed | Heading |
|---|---|---|---|---|---|
| 2026-04-25 20:21 | 48.12009 | 16.55867 | 583 ft | 0 kts | 296° |
| 2026-04-25 20:39 | 48.12005 | 16.55881 | 583 ft | 2 kts | 295° |
| 2026-04-25 20:39 | 48.11998 | 16.55901 | 584 ft | 2 kts | 296° |
| 2026-04-25 20:39 | 48.11994 | 16.55915 | 584 ft | 2 kts | 296° |
| 2026-04-25 20:40 | 48.11985 | 16.55942 | 584 ft | 2 kts | 296° |
| 2026-04-25 20:40 | 48.11979 | 16.55962 | 585 ft | 2 kts | 296° |
| 2026-04-25 20:40 | 48.11973 | 16.55979 | 585 ft | 0 kts | 296° |
| 2026-04-25 20:40 | 48.11973 | 16.55980 | 585 ft | 0 kts | 296° |
| 2026-04-25 20:42 | 48.11977 | 16.55967 | 585 ft | 3 kts | 296° |
| 2026-04-25 20:43 | 48.11965 | 16.55948 | 584 ft | 4 kts | 190° |
| 2026-04-25 20:43 | 48.11928 | 16.55928 | 584 ft | 7 kts | 207° |
| 2026-04-25 20:43 | 48.11876 | 16.55889 | 583 ft | 9 kts | 207° |
| 2026-04-25 20:43 | 48.11809 | 16.55840 | 582 ft | 11 kts | 206° |
| 2026-04-25 20:44 | 48.11750 | 16.55797 | 582 ft | 9 kts | 207° |
| 2026-04-25 20:44 | 48.11691 | 16.55798 | 582 ft | 10 kts | 128° |
| 2026-04-25 20:44 | 48.11657 | 16.55898 | 583 ft | 11 kts | 116° |
| 2026-04-25 20:44 | 48.11618 | 16.56018 | 586 ft | 14 kts | 117° |
| 2026-04-25 20:45 | 48.11570 | 16.56164 | 589 ft | 16 kts | 116° |
| 2026-04-25 20:45 | 48.11513 | 16.56341 | 592 ft | 21 kts | 116° |
| 2026-04-25 20:45 | 48.11446 | 16.56548 | 599 ft | 23 kts | 115° |
| 2026-04-25 20:45 | 48.11419 | 16.56629 | 601 ft | 0 kts | 116° |
| 2026-04-25 20:46 | 48.11408 | 16.56664 | 601 ft | 7 kts | 116° |
| 2026-04-25 20:47 | 48.11384 | 16.56736 | 602 ft | 5 kts | 117° |
| 2026-04-25 20:47 | 48.11361 | 16.56805 | 602 ft | 10 kts | 116° |
| 2026-04-25 20:47 | 48.11327 | 16.56912 | 603 ft | 10 kts | 116° |
| 2026-04-25 20:47 | 48.11297 | 16.57006 | 604 ft | 10 kts | 116° |
| 2026-04-25 20:48 | 48.11264 | 16.57107 | 603 ft | 11 kts | 116° |
| 2026-04-25 20:48 | 48.11224 | 16.57229 | 603 ft | 15 kts | 116° |
| 2026-04-25 20:48 | 48.11166 | 16.57409 | 600 ft | 22 kts | 116° |
| 2026-04-25 20:48 | 48.11096 | 16.57622 | 597 ft | 19 kts | 116° |
| 2026-04-25 20:49 | 48.11060 | 16.57663 | 597 ft | 4 kts | 213° |
| 2026-04-25 20:49 | 48.11038 | 16.57640 | 598 ft | 3 kts | 203° |
| 2026-04-25 20:49 | 48.11022 | 16.57630 | 598 ft | 0 kts | 205° |
| 2026-04-25 20:50 | 48.11015 | 16.57625 | 598 ft | 0 kts | 205° |
| 2026-04-25 20:50 | 48.10978 | 16.57599 | 599 ft | 10 kts | 206° |
| 2026-04-25 20:50 | 48.10924 | 16.57533 | 600 ft | 10 kts | 256° |
| 2026-04-25 20:51 | 48.10950 | 16.57424 | 601 ft | 19 kts | 297° |
| 2026-04-25 20:51 | 48.11129 | 16.56872 | 602 ft | 99 kts | 297° |
| 2026-04-25 20:51 | 48.11534 | 16.55617 | 620 ft | 165 kts | 295° |
| 2026-04-25 20:51 | 48.12075 | 16.54033 | 1053 ft | 163 kts | 297° |
| 2026-04-25 20:52 | 48.12523 | 16.52553 | 1321 ft | 154 kts | 285° |
| 2026-04-25 20:52 | 48.12517 | 16.51504 | 1431 ft | 156 kts | 252° |
| 2026-04-25 20:52 | 48.11412 | 16.50201 | 2095 ft | 153 kts | 213° |
| 2026-04-25 20:52 | 48.10419 | 16.49602 | 2722 ft | 164 kts | 211° |
| 2026-04-25 20:53 | 48.09408 | 16.48861 | 3422 ft | 155 kts | 220° |
| 2026-04-25 20:53 | 48.08527 | 16.48027 | 3694 ft | 155 kts | 225° |
| 2026-04-25 20:53 | 48.07677 | 16.47078 | 4156 ft | 154 kts | 228° |
| 2026-04-25 20:53 | 48.06827 | 16.46038 | 4586 ft | 165 kts | 229° |
| 2026-04-25 20:54 | 48.05919 | 16.44877 | 5005 ft | 178 kts | 229° |
| 2026-04-25 20:54 | 48.04939 | 16.43598 | 5356 ft | 199 kts | 229° |
| 2026-04-25 20:54 | 48.03857 | 16.42187 | 5783 ft | 217 kts | 228° |
| 2026-04-25 20:54 | 48.02655 | 16.40614 | 6048 ft | 244 kts | 227° |
| 2026-04-25 20:55 | 48.01324 | 16.38879 | 6479 ft | 263 kts | 227° |
| 2026-04-25 20:55 | 47.99921 | 16.37056 | 7095 ft | 273 kts | 226° |
| 2026-04-25 20:55 | 47.98485 | 16.35194 | 7716 ft | 276 kts | 226° |
| 2026-04-25 20:55 | 47.97184 | 16.33110 | 8323 ft | 270 kts | 245° |
| 2026-04-25 20:56 | 47.96663 | 16.30501 | 8955 ft | 262 kts | 270° |
| 2026-04-25 20:56 | 47.96934 | 16.27865 | 9584 ft | 260 kts | 289° |
| 2026-04-25 20:56 | 47.97535 | 16.25328 | 10201 ft | 266 kts | 290° |